North Barrington, Illinois
Current Conditions -  °F | °C
As of 11:52 AM on Friday 31 Oct 2014 (Local Time) from KPWK Reporting Station
Overcast Overcast  
Wind Chill: 26°   Ceiling: 3800
Heat Index: 38°   Visibility: 10mi
Dew Point: 24°   Wind: 29mph
Humidity: 57%   Direction: 350°N
Pressure: 30.18"   Gusts: 37mph
Location:  42.1512°N, 88.1636°W
Report Text: KPWK 311652Z 35025G32KT 10SM OVC038 03/M04 A3018 RMK AO2 PK WND 32038/1614 SNB1553E10 SLP222 P0000 T00331044
Loading
Personal Weather Stations






























Interactive Weather Map
Tropical Storm Tracking
New forecast layout! Learn more

10-Day Weather Forecast

Advertisements
Track Severe Weather on mobile